createdAt,value
2019-02-05T00:00:33.579Z,64.42
2019-02-05T00:03:02.474Z,64.16
2019-02-05T00:05:30.973Z,64.45
2019-02-05T00:07:59.500Z,64.59
2019-02-05T00:10:27.888Z,64.59
2019-02-05T00:12:56.288Z,64.69
2019-02-05T00:15:24.708Z,64.86
2019-02-05T00:17:53.661Z,65.05
2019-02-05T00:20:22.354Z,64.77
2019-02-05T00:22:51.038Z,64.59
2019-02-05T00:25:19.427Z,64.52
2019-02-05T00:27:47.928Z,64.74
2019-02-05T00:30:17.165Z,65.42
2019-02-05T00:32:46.095Z,65.62
2019-02-05T00:35:14.670Z,66.14
2019-02-05T00:37:43.231Z,65.60
2019-02-05T00:40:16.657Z,65.59
2019-02-05T00:42:45.321Z,65.84
2019-02-05T00:45:18.948Z,66.44
2019-02-05T00:47:47.324Z,67.25
2019-02-05T00:50:19.479Z,68.22
2019-02-05T00:52:48.087Z,68.34
2019-02-05T00:55:18.202Z,68.84
2019-02-05T00:57:46.956Z,69.23
2019-02-05T01:00:24.452Z,68.97
2019-02-05T01:02:52.995Z,69.18
2019-02-05T01:05:22.082Z,69.63
2019-02-05T01:07:50.706Z,70.22
2019-02-05T01:10:19.834Z,70.20
2019-02-05T01:12:48.210Z,70.34
2019-02-05T01:15:18.813Z,70.34
2019-02-05T01:17:47.432Z,70.44
2019-02-05T01:20:17.660Z,70.66
2019-02-05T01:22:47.194Z,71.16
2019-02-05T01:25:17.314Z,71.63
2019-02-05T01:27:45.774Z,71.13
2019-02-05T01:30:19.854Z,71.18
2019-02-05T01:32:48.251Z,71.97
2019-02-05T01:35:16.699Z,71.93
2019-02-05T01:37:45.109Z,72.05
2019-02-05T01:40:16.227Z,72.56
2019-02-05T01:42:44.943Z,72.38
2019-02-05T01:45:15.879Z,72.57
2019-02-05T01:47:44.529Z,72.49
2019-02-05T01:50:19.098Z,72.38
2019-02-05T01:52:47.492Z,72.43
2019-02-05T01:55:16.322Z,72.44
2019-02-05T01:57:45.489Z,72.70
2019-02-05T02:00:23.037Z,72.66
2019-02-05T02:02:51.658Z,72.67
2019-02-05T02:05:20.363Z,72.70
2019-02-05T02:07:48.751Z,72.92
2019-02-05T02:10:20.886Z,73.20
2019-02-05T02:12:49.342Z,73.34
2019-02-05T02:15:18.647Z,73.47
2019-02-05T02:17:47.119Z,73.67
2019-02-05T02:20:18.072Z,73.90
2019-02-05T02:22:47.501Z,74.20
2019-02-05T02:25:17.002Z,74.42
2019-02-05T02:27:45.823Z,74.72
2019-02-05T02:30:22.947Z,74.91
2019-02-05T02:32:51.325Z,75.15
2019-02-05T02:35:19.720Z,75.58
2019-02-05T02:37:48.312Z,76.06
2019-02-05T02:40:16.702Z,76.05
2019-02-05T02:42:45.095Z,76.08
2019-02-05T02:45:14.910Z,76.47
2019-02-05T02:47:43.457Z,76.64
2019-02-05T02:50:19.466Z,77.18
2019-02-05T02:52:48.285Z,77.46
2019-02-05T02:55:16.852Z,77.53
2019-02-05T02:57:45.770Z,77.58
2019-02-05T03:00:21.622Z,78.06
2019-02-05T03:02:51.522Z,78.10
2019-02-05T03:05:22.041Z,78.38
2019-02-05T03:07:50.436Z,78.21
2019-02-05T03:10:21.432Z,79.01
2019-02-05T03:12:50.155Z,79.12
2019-02-05T03:15:18.686Z,78.67
2019-02-05T03:17:47.380Z,78.51
2019-02-05T03:20:17.038Z,78.31
2019-02-05T03:22:45.898Z,78.72
2019-02-05T03:25:17.639Z,78.81
2019-02-05T03:27:46.203Z,78.79
2019-02-05T03:30:20.045Z,78.75
2019-02-05T03:32:49.127Z,78.83
2019-02-05T03:35:18.063Z,78.81
2019-02-05T03:37:46.523Z,78.71
2019-02-05T03:40:21.384Z,78.67
2019-02-05T03:42:49.850Z,78.62
2019-02-05T03:45:18.436Z,78.80
2019-02-05T03:47:46.817Z,78.90
2019-02-05T03:50:15.206Z,79.00
2019-02-05T03:52:46.942Z,78.92
2019-02-05T03:55:33.208Z,78.98
2019-02-05T03:58:23.042Z,78.76
2019-02-05T04:01:09.455Z,79.35
2019-02-05T04:03:52.673Z,79.56
2019-02-05T04:06:29.849Z,79.58
2019-02-05T04:09:05.356Z,79.45
2019-02-05T04:11:42.569Z,79.23
2019-02-05T04:14:33.808Z,79.04
2019-02-05T04:17:08.227Z,79.02
2019-02-05T04:19:42.856Z,79.17
2019-02-05T04:22:31.091Z,79.05
2019-02-05T04:25:08.322Z,79.03
2019-02-05T04:28:00.728Z,78.97
2019-02-05T04:30:51.643Z,78.76
2019-02-05T04:33:23.266Z,78.95
2019-02-05T04:36:03.850Z,78.96
2019-02-05T04:38:44.245Z,79.08
2019-02-05T04:41:32.664Z,79.33
2019-02-05T04:44:16.612Z,79.23
2019-02-05T04:46:53.803Z,79.69
2019-02-05T04:49:40.678Z,79.80
2019-02-05T04:52:33.497Z,79.27
2019-02-05T04:55:13.642Z,79.07
2019-02-05T04:58:07.588Z,79.23
2019-02-05T05:01:03.237Z,79.15
2019-02-05T05:03:43.434Z,79.06
2019-02-05T05:06:18.155Z,79.21
2019-02-05T05:09:01.557Z,79.11
2019-02-05T05:11:30.213Z,79.08
2019-02-05T05:13:58.896Z,78.94
2019-02-05T05:16:27.592Z,78.96
2019-02-05T05:18:56.327Z,79.14
2019-02-05T05:21:25.257Z,79.13
2019-02-05T05:23:53.963Z,79.03
2019-02-05T05:26:22.480Z,78.88
2019-02-05T05:28:51.284Z,78.94
2019-02-05T05:31:20.036Z,78.73
2019-02-05T05:33:48.421Z,78.85
2019-02-05T05:36:16.817Z,78.87
2019-02-05T05:38:45.565Z,78.92
2019-02-05T05:41:14.126Z,79.21
2019-02-05T05:43:42.513Z,79.02
2019-02-05T05:46:11.208Z,79.07
2019-02-05T05:48:39.610Z,79.02
2019-02-05T05:51:07.987Z,79.37
2019-02-05T05:53:36.452Z,79.20
2019-02-05T05:56:04.944Z,79.47
2019-02-05T05:58:33.345Z,79.21
2019-02-05T06:01:01.722Z,79.25
2019-02-05T06:03:30.731Z,79.41
2019-02-05T06:05:59.125Z,79.46
2019-02-05T06:08:27.495Z,79.41
2019-02-05T06:10:56.146Z,79.43
2019-02-05T06:13:24.531Z,79.49
2019-02-05T06:15:53.312Z,79.67
2019-02-05T06:18:21.903Z,79.53
2019-02-05T06:20:50.576Z,79.74
2019-02-05T06:23:19.548Z,80.28
2019-02-05T06:25:47.951Z,80.57
2019-02-05T06:28:16.534Z,80.20
2019-02-05T06:30:44.932Z,80.50
2019-02-05T06:33:13.990Z,80.41
2019-02-05T06:35:42.383Z,80.76
2019-02-05T06:38:10.768Z,80.84
2019-02-05T06:40:39.167Z,80.88
2019-02-05T06:43:07.912Z,80.75
2019-02-05T06:45:36.520Z,80.51
2019-02-05T06:48:05.575Z,80.17
2019-02-05T06:50:34.230Z,80.04
2019-02-05T06:53:02.966Z,80.13
2019-02-05T06:55:31.363Z,80.27
2019-02-05T06:57:59.754Z,80.55
2019-02-05T07:00:28.221Z,80.62
2019-02-05T07:02:56.673Z,80.72
2019-02-05T07:05:25.198Z,80.86
2019-02-05T07:07:54.084Z,80.74
2019-02-05T07:10:24.448Z,80.32
2019-02-05T07:12:52.833Z,80.58
2019-02-05T07:15:21.789Z,80.73
2019-02-05T07:17:50.484Z,80.68
2019-02-05T07:20:19.229Z,81.03
2019-02-05T07:22:47.627Z,81.21
2019-02-05T07:25:19.352Z,81.23
2019-02-05T07:27:48.053Z,81.25
2019-02-05T07:30:21.962Z,81.75
2019-02-05T07:32:50.344Z,81.66
2019-02-05T07:35:18.820Z,81.14
2019-02-05T07:37:47.617Z,81.18
2019-02-05T07:40:21.440Z,80.87
2019-02-05T07:42:50.103Z,80.71
2019-02-05T07:45:23.709Z,81.37
2019-02-05T07:47:52.382Z,81.25
2019-02-05T07:50:23.841Z,81.39
2019-02-05T07:52:52.897Z,81.00
2019-02-05T07:55:21.511Z,80.49
2019-02-05T07:57:50.207Z,80.61
2019-02-05T08:00:24.844Z,80.64
2019-02-05T08:02:53.625Z,80.09
2019-02-05T08:05:31.276Z,80.21
2019-02-05T08:07:59.991Z,80.06
2019-02-05T08:10:28.932Z,79.95
2019-02-05T08:12:58.000Z,80.15
2019-02-05T08:15:31.761Z,80.12
2019-02-05T08:18:00.492Z,80.03
2019-02-05T08:20:29.384Z,79.93
2019-02-05T08:22:58.068Z,79.68
2019-02-05T08:25:26.962Z,79.91
2019-02-05T08:27:56.253Z,79.64
2019-02-05T08:30:30.560Z,79.62
2019-02-05T08:32:59.020Z,79.40
2019-02-05T08:35:28.269Z,79.75
2019-02-05T08:37:56.937Z,80.00
2019-02-05T08:40:25.445Z,79.82
2019-02-05T08:42:54.213Z,79.70
2019-02-05T08:45:28.887Z,79.73
2019-02-05T08:47:57.272Z,79.87
2019-02-05T08:50:27.961Z,79.79
2019-02-05T08:52:56.660Z,79.62
2019-02-05T08:55:25.183Z,79.81
2019-02-05T08:57:59.347Z,80.34
2019-02-05T09:00:30.809Z,80.05
2019-02-05T09:02:59.496Z,80.27
2019-02-05T09:05:27.957Z,80.53
2019-02-05T09:07:56.809Z,80.04
2019-02-05T09:10:28.604Z,79.90
2019-02-05T09:12:57.594Z,80.02
2019-02-05T09:15:29.431Z,80.27
2019-02-05T09:17:56.544Z,79.86
2019-02-05T09:20:24.997Z,79.99
2019-02-05T09:22:53.934Z,80.01
2019-02-05T09:25:23.050Z,80.00
2019-02-05T09:27:51.474Z,79.70
2019-02-05T09:30:22.900Z,79.82
2019-02-05T09:32:53.603Z,79.96
2019-02-05T09:35:22.323Z,79.99
2019-02-05T09:37:50.825Z,79.72
2019-02-05T09:40:25.018Z,79.67
2019-02-05T09:42:53.573Z,79.57
2019-02-05T09:45:23.821Z,79.63
2019-02-05T09:47:52.926Z,79.58
2019-02-05T09:50:21.955Z,79.57
2019-02-05T09:52:50.730Z,79.61
2019-02-05T09:55:21.032Z,79.26
2019-02-05T09:57:49.954Z,79.04
2019-02-05T10:00:27.512Z,79.40
2019-02-05T10:02:56.522Z,79.21
2019-02-05T10:05:30.427Z,79.47
2019-02-05T10:07:59.163Z,79.20
2019-02-05T10:10:27.684Z,79.17
2019-02-05T10:12:56.116Z,79.11
2019-02-05T10:15:27.265Z,79.21
2019-02-05T10:17:55.697Z,79.08
2019-02-05T10:20:24.904Z,79.11
2019-02-05T10:22:55.157Z,79.04
2019-02-05T10:25:23.997Z,78.76
2019-02-05T10:27:52.656Z,78.82
2019-02-05T10:30:27.415Z,79.04
2019-02-05T10:32:56.065Z,78.64
2019-02-05T10:35:24.457Z,78.75
2019-02-05T10:37:53.211Z,78.71
2019-02-05T10:40:23.206Z,78.83
2019-02-05T10:42:51.687Z,78.80
2019-02-05T10:45:22.409Z,78.70
2019-02-05T10:47:51.286Z,79.05
2019-02-05T10:50:20.722Z,78.86
2019-02-05T10:52:49.602Z,78.84
2019-02-05T10:55:20.110Z,78.71
2019-02-05T10:57:50.438Z,78.62
2019-02-05T11:00:22.495Z,78.38
2019-02-05T11:02:51.390Z,78.33
2019-02-05T11:05:22.017Z,78.36
2019-02-05T11:07:50.812Z,78.45
2019-02-05T11:10:19.598Z,78.44
2019-02-05T11:12:48.285Z,78.25
2019-02-05T11:15:25.107Z,78.23
2019-02-05T11:17:53.688Z,78.35
2019-02-05T11:20:26.563Z,77.98
2019-02-05T11:22:55.723Z,77.92
2019-02-05T11:25:24.250Z,78.14
2019-02-05T11:27:52.912Z,78.22
2019-02-05T11:30:24.348Z,78.12
2019-02-05T11:32:53.287Z,78.16
2019-02-05T11:35:22.031Z,78.20
2019-02-05T11:37:51.538Z,78.08
2019-02-05T11:40:22.660Z,78.17
2019-02-05T11:42:51.363Z,78.15
2019-02-05T11:45:20.500Z,78.19
2019-02-05T11:47:50.175Z,78.71
2019-02-05T11:50:19.324Z,78.53
2019-02-05T11:52:48.181Z,78.29
2019-02-05T11:55:22.180Z,78.00
2019-02-05T11:57:50.954Z,77.99
2019-02-05T12:00:33.011Z,77.92
2019-02-05T12:03:02.026Z,77.69
2019-02-05T12:05:30.938Z,77.88
2019-02-05T12:07:59.757Z,77.83
2019-02-05T12:10:28.242Z,77.67
2019-02-05T12:12:57.048Z,77.37
2019-02-05T12:15:28.055Z,77.67
2019-02-05T12:17:57.748Z,77.42
2019-02-05T12:20:26.448Z,77.27
2019-02-05T12:22:54.905Z,77.21
2019-02-05T12:25:25.104Z,77.40
2019-02-05T12:27:53.751Z,77.47
2019-02-05T12:30:27.815Z,77.46
2019-02-05T12:32:56.544Z,77.42
2019-02-05T12:35:25.341Z,76.54
2019-02-05T12:37:54.507Z,76.30
2019-02-05T12:40:23.916Z,76.31
2019-02-05T12:42:52.840Z,76.32
2019-02-05T12:45:23.932Z,76.40
2019-02-05T12:47:52.323Z,76.52
2019-02-05T12:50:26.745Z,76.48
2019-02-05T12:52:55.941Z,76.55
2019-02-05T12:55:25.252Z,76.34
2019-02-05T12:57:54.058Z,76.02
2019-02-05T13:00:25.454Z,76.02
2019-02-05T13:02:54.686Z,76.12
2019-02-05T13:05:23.603Z,76.14
2019-02-05T13:07:51.990Z,75.83
2019-02-05T13:10:29.190Z,75.90
2019-02-05T13:12:57.719Z,76.52
2019-02-05T13:15:26.477Z,76.24
2019-02-05T13:17:57.629Z,75.93
2019-02-05T13:20:31.025Z,75.92
2019-02-05T13:23:00.647Z,76.00
2019-02-05T13:25:30.673Z,76.16
2019-02-05T13:27:59.452Z,76.15
2019-02-05T13:30:30.648Z,76.09
2019-02-05T13:32:59.573Z,75.42
2019-02-05T13:35:29.344Z,75.47
2019-02-05T13:37:58.893Z,75.71
2019-02-05T13:40:28.535Z,75.84
2019-02-05T13:42:58.007Z,75.22
2019-02-05T13:45:29.501Z,75.28
2019-02-05T13:47:58.376Z,75.10
2019-02-05T13:50:33.331Z,75.10
2019-02-05T13:53:02.070Z,74.98
2019-02-05T13:55:36.573Z,75.24
2019-02-05T13:58:05.798Z,75.30
2019-02-05T14:00:39.640Z,76.00
2019-02-05T14:03:09.848Z,76.08
2019-02-05T14:05:38.876Z,76.09
2019-02-05T14:08:07.501Z,75.90
2019-02-05T14:10:38.583Z,75.88
2019-02-05T14:13:07.722Z,75.19
2019-02-05T14:15:41.708Z,75.12
2019-02-05T14:18:11.053Z,75.12
2019-02-05T14:20:39.973Z,75.45
2019-02-05T14:23:08.662Z,75.47
2019-02-05T14:25:38.195Z,75.30
2019-02-05T14:28:07.033Z,75.37
2019-02-05T14:30:38.347Z,75.26
2019-02-05T14:33:07.842Z,74.91
2019-02-05T14:35:36.260Z,74.76
2019-02-05T14:38:06.483Z,75.70
2019-02-05T14:40:35.325Z,75.70
2019-02-05T14:43:04.473Z,75.34
2019-02-05T14:45:34.177Z,74.89
2019-02-05T14:48:03.042Z,74.81
2019-02-05T14:50:33.841Z,74.51
2019-02-05T14:53:03.006Z,74.54
2019-02-05T14:55:31.460Z,74.50
2019-02-05T14:57:59.893Z,74.61
2019-02-05T15:00:35.439Z,74.46
2019-02-05T15:03:07.203Z,74.58
2019-02-05T15:05:35.620Z,74.41
2019-02-05T15:08:05.988Z,74.52
2019-02-05T15:10:34.521Z,74.63
2019-02-05T15:13:03.368Z,74.62
2019-02-05T15:15:32.266Z,74.77
2019-02-05T15:18:00.975Z,74.86
2019-02-05T15:20:32.280Z,74.98
2019-02-05T15:23:01.234Z,74.97
2019-02-05T15:25:36.204Z,74.95
2019-02-05T15:28:06.537Z,74.95
2019-02-05T15:30:37.325Z,75.40
2019-02-05T15:33:09.702Z,75.85
2019-02-05T15:35:39.715Z,75.05
2019-02-05T15:38:08.564Z,75.33
2019-02-05T15:40:37.587Z,75.33
2019-02-05T15:43:06.799Z,75.35
2019-02-05T15:45:35.253Z,75.38
2019-02-05T15:48:03.731Z,75.64
2019-02-05T15:50:32.399Z,75.51
2019-02-05T15:53:00.810Z,75.52
2019-02-05T15:55:29.293Z,75.96
2019-02-05T15:57:57.982Z,76.20
2019-02-05T16:00:26.850Z,76.57
2019-02-05T16:02:55.297Z,76.16
2019-02-05T16:05:23.884Z,76.29
2019-02-05T16:07:52.286Z,76.74
2019-02-05T16:10:27.456Z,76.53
2019-02-05T16:12:56.242Z,76.89
2019-02-05T16:15:25.371Z,76.85
2019-02-05T16:17:53.814Z,76.53
2019-02-05T16:20:22.469Z,76.66
2019-02-05T16:22:51.636Z,77.12
2019-02-05T16:25:20.187Z,77.20
2019-02-05T16:27:48.569Z,77.26
2019-02-05T16:30:25.463Z,77.22
2019-02-05T16:32:54.233Z,77.14
2019-02-05T16:35:22.701Z,76.92
2019-02-05T16:37:52.124Z,76.69
2019-02-05T16:40:23.432Z,77.18
2019-02-05T16:42:52.633Z,77.79
2019-02-05T16:45:29.432Z,77.86
2019-02-05T16:47:57.832Z,77.45
2019-02-05T16:50:32.262Z,78.15
2019-02-05T16:53:00.779Z,79.07
2019-02-05T16:55:29.698Z,78.80
2019-02-05T16:57:58.470Z,78.53
2019-02-05T17:00:34.939Z,79.17
2019-02-05T17:03:03.593Z,79.74
2019-02-05T17:05:34.009Z,79.46
2019-02-05T17:08:02.735Z,79.54
2019-02-05T17:10:31.429Z,79.44
2019-02-05T17:13:00.668Z,79.83
2019-02-05T17:15:29.546Z,79.82
2019-02-05T17:17:58.057Z,80.11
2019-02-05T17:20:29.457Z,80.31
2019-02-05T17:23:00.499Z,80.52
2019-02-05T17:25:29.168Z,80.78
2019-02-05T17:28:02.373Z,80.89
2019-02-05T17:30:33.988Z,81.14
2019-02-05T17:33:02.521Z,81.20
2019-02-05T17:35:31.164Z,81.31
2019-02-05T17:38:00.450Z,81.24
2019-02-05T17:40:28.981Z,80.83
2019-02-05T17:42:57.774Z,80.98
2019-02-05T17:45:32.113Z,81.10
2019-02-05T17:48:02.736Z,81.10
2019-02-05T17:50:31.291Z,80.93
2019-02-05T17:53:00.622Z,80.97
2019-02-05T17:55:29.394Z,81.09
2019-02-05T17:57:57.788Z,81.48
2019-02-05T18:00:34.028Z,81.66
2019-02-05T18:03:02.377Z,81.63
2019-02-05T18:05:31.002Z,81.84
2019-02-05T18:07:59.728Z,82.03
2019-02-05T18:10:28.998Z,82.00
2019-02-05T18:12:57.640Z,82.11
2019-02-05T18:15:28.900Z,82.24
2019-02-05T18:17:57.725Z,82.51
2019-02-05T18:20:26.202Z,82.38
2019-02-05T18:22:55.822Z,82.15
2019-02-05T18:25:24.799Z,82.52
2019-02-05T18:27:53.297Z,82.62
2019-02-05T18:30:27.536Z,82.20
2019-02-05T18:33:03.254Z,82.27
2019-02-05T18:35:26.179Z,82.38
2019-02-05T18:37:54.914Z,82.20
2019-02-05T18:40:29.420Z,82.12
2019-02-05T18:42:58.056Z,81.99
2019-02-05T18:45:26.464Z,81.89
2019-02-05T18:47:55.145Z,81.59
2019-02-05T18:50:29.377Z,81.86
2019-02-05T18:52:58.667Z,82.69
2019-02-05T18:55:30.755Z,82.97
2019-02-05T18:58:08.692Z,83.10
2019-02-05T19:00:38.523Z,82.90
2019-02-05T19:03:14.943Z,82.88
2019-02-05T19:05:36.870Z,82.96
2019-02-05T19:08:16.454Z,82.55
2019-02-05T19:10:46.490Z,82.22
2019-02-05T19:13:15.115Z,82.13
2019-02-05T19:15:43.873Z,81.78
2019-02-05T19:18:12.552Z,81.46
2019-02-05T19:20:41.464Z,81.21
2019-02-05T19:23:10.972Z,81.07
2019-02-05T19:25:41.404Z,80.82
2019-02-05T19:28:11.547Z,80.61
2019-02-05T19:30:41.881Z,80.27
2019-02-05T19:33:10.303Z,79.96
2019-02-05T19:35:38.998Z,79.56
2019-02-05T19:38:07.454Z,79.44
2019-02-05T19:40:36.192Z,79.14
2019-02-05T19:43:05.011Z,78.95
2019-02-05T19:45:52.274Z,78.55
2019-02-05T19:48:28.363Z,78.89
2019-02-05T19:50:57.543Z,79.00
2019-02-05T19:53:26.279Z,79.02
2019-02-05T19:55:54.941Z,79.22
2019-02-05T19:58:23.446Z,79.44
2019-02-05T20:00:52.566Z,79.50
2019-02-05T20:03:21.264Z,79.09
2019-02-05T20:05:49.788Z,79.50
2019-02-05T20:08:18.248Z,79.77
2019-02-05T20:10:46.838Z,80.10
2019-02-05T20:13:15.389Z,80.36
2019-02-05T20:15:43.779Z,80.22
2019-02-05T20:18:12.528Z,80.39
2019-02-05T20:20:41.338Z,80.07
2019-02-05T20:23:09.742Z,79.81
2019-02-05T20:25:38.214Z,79.59
2019-02-05T20:28:06.606Z,79.49
2019-02-05T20:30:36.656Z,79.38
2019-02-05T20:33:06.310Z,79.49
2019-02-05T20:35:35.195Z,79.53
2019-02-05T20:38:03.706Z,79.59
2019-02-05T20:40:34.567Z,79.62
2019-02-05T20:43:03.060Z,79.56
2019-02-05T20:45:32.117Z,80.44
2019-02-05T20:48:00.943Z,80.67
2019-02-05T20:50:29.462Z,80.58
2019-02-05T20:52:58.231Z,80.40
2019-02-05T20:55:26.720Z,80.53
2019-02-05T20:57:55.257Z,80.94
2019-02-05T21:00:33.277Z,81.00
2019-02-05T21:03:01.750Z,80.86
2019-02-05T21:05:30.337Z,80.91
2019-02-05T21:07:59.205Z,80.50
2019-02-05T21:10:31.748Z,80.61
2019-02-05T21:13:00.807Z,80.76
2019-02-05T21:15:29.670Z,80.82
2019-02-05T21:17:58.118Z,80.43
2019-02-05T21:20:33.225Z,80.66
2019-02-05T21:23:03.387Z,80.65
2019-02-05T21:25:31.832Z,80.34
2019-02-05T21:28:00.450Z,80.41
2019-02-05T21:30:29.096Z,80.46
2019-02-05T21:32:57.501Z,80.59
2019-02-05T21:35:25.934Z,81.29
2019-02-05T21:37:54.326Z,80.88
2019-02-05T21:40:26.664Z,80.68
2019-02-05T21:42:55.216Z,80.52
2019-02-05T21:45:33.320Z,80.40
2019-02-05T21:48:01.938Z,80.43
2019-02-05T21:50:30.332Z,80.40
2019-02-05T21:52:59.114Z,80.63
2019-02-05T21:55:28.543Z,80.36
2019-02-05T21:57:57.416Z,80.35
2019-02-05T22:00:31.124Z,79.90
2019-02-05T22:02:59.881Z,80.43
2019-02-05T22:05:30.002Z,79.96
2019-02-05T22:07:58.575Z,79.89
2019-02-05T22:10:27.609Z,80.10
2019-02-05T22:12:56.201Z,80.13
2019-02-05T22:15:25.477Z,80.24
2019-02-05T22:17:53.870Z,80.18
2019-02-05T22:20:29.921Z,80.10
2019-02-05T22:22:59.006Z,80.06
2019-02-05T22:25:32.097Z,79.62
2019-02-05T22:28:00.571Z,79.34
2019-02-05T22:30:37.148Z,79.17
2019-02-05T22:33:07.577Z,78.72
2019-02-05T22:35:36.367Z,78.40
2019-02-05T22:38:05.792Z,78.14
2019-02-05T22:40:34.263Z,78.50
2019-02-05T22:43:03.347Z,78.74
2019-02-05T22:45:32.838Z,78.81
2019-02-05T22:48:01.848Z,78.69
2019-02-05T22:50:35.789Z,78.63
2019-02-05T22:53:06.735Z,78.05
2019-02-05T22:55:35.344Z,78.41
2019-02-05T22:58:04.843Z,78.07
2019-02-05T23:00:41.151Z,78.48
2019-02-05T23:03:09.999Z,78.81
2019-02-05T23:05:47.843Z,78.67
2019-02-05T23:08:16.237Z,78.69
2019-02-05T23:11:03.442Z,78.52
2019-02-05T23:13:26.996Z,78.52
2019-02-05T23:15:55.799Z,78.36
2019-02-05T23:18:24.264Z,78.19
2019-02-05T23:20:54.042Z,77.88
2019-02-05T23:23:22.621Z,77.46
2019-02-05T23:25:51.005Z,77.47
2019-02-05T23:28:19.433Z,77.24
2019-02-05T23:30:47.999Z,77.12
2019-02-05T23:33:16.390Z,77.15
2019-02-05T23:35:44.785Z,76.95
2019-02-05T23:38:13.455Z,77.04
2019-02-05T23:40:41.849Z,76.85
2019-02-05T23:43:10.234Z,76.79
2019-02-05T23:45:38.633Z,76.87
2019-02-05T23:48:07.994Z,76.89
2019-02-05T23:50:36.488Z,76.93
2019-02-05T23:53:05.728Z,77.18
2019-02-05T23:55:34.126Z,77.44
2019-02-05T23:58:03.045Z,77.39
